Time;durP1;ratioP1;P1;durP2;ratioP2;P2;SDS_P1;SDS_P2;PMS_P1;PMS_P2;Temp;Humidity;BMP_temperature;BMP_pressure;BME280_temperature;BME280_humidity;BME280_pressure;Samples;Min_cycle;Max_cycle;Signal;HPM_P1;HPM_P2
2022/09/13 00:01:27;;;;;;;;;;;;;;;14.27;73.54;97729.28;5040229;28;19932;-75
2022/09/13 00:04:41;;;;;;;;;;;;;;;14.25;73.33;97720.66;5042006;28;20365;-74
2022/09/13 00:07:30;;;;;;;;;;;;;;;14.25;73.21;97725.31;5042299;28;19975;-74
2022/09/13 00:10:19;;;;;;;;;;;;;;;14.24;73.20;97729.19;5032358;28;19955;-74
2022/09/13 00:13:07;;;;;;;;;;;;;;;14.24;73.09;97729.19;5038963;28;20343;-74
2022/09/13 00:15:57;;;;;;;;;;;;;;;14.20;73.31;97723.59;5032531;28;19932;-74
2022/09/13 00:18:45;;;;;;;;;;;;;;;14.20;72.95;97711.88;5031022;28;19925;-74
2022/09/13 00:21:34;;;;;;;;;;;;;;;14.15;73.19;97704.69;5025938;28;19932;-74
2022/09/13 00:24:24;;;;;;;;;;;;;;;14.13;73.14;97707.78;5045931;28;19925;-74
2022/09/13 00:27:12;;;;;;;;;;;;;;;14.10;73.34;97708.44;5022493;28;19929;-74
2022/09/13 00:30:01;;;;;;;;;;;;;;;14.09;73.37;97697.84;5034347;28;20004;-74
2022/09/13 00:32:49;;;;;;;;;;;;;;;14.10;73.12;97705.69;5047862;28;20025;-74
2022/09/13 00:35:38;;;;;;;;;;;;;;;14.09;73.27;97706.06;5047641;28;19935;-74
2022/09/13 00:38:27;;;;;;;;;;;;;;;14.08;73.19;97713.44;5032615;28;20442;-74
2022/09/13 00:41:17;;;;;;;;;;;;;;;14.08;73.16;97704.47;5042542;28;19932;-74
2022/09/13 00:44:25;;;;;;;;;;;;;;;14.07;73.41;97702.88;5045154;28;19924;-74
2022/09/13 00:47:14;;;;;;;;;;;;;;;14.05;73.24;97696.94;5033037;28;20371;-74
2022/09/13 00:50:04;;;;;;;;;;;;;;;14.03;73.37;97685.56;5027505;28;19932;-74
2022/09/13 00:56:08;;;;;;;;;;;;;;;13.98;72.98;97683.03;5046659;28;19929;-73
2022/09/13 00:58:58;;;;;;;;;;;;;;;13.99;73.46;97690.09;5031472;28;19956;-73
2022/09/13 01:01:47;;;;;;;;;;;;;;;13.92;73.42;97684.41;5051341;28;19925;-74
2022/09/13 01:04:38;;;;;;;;;;;;;;;13.90;73.33;97676.53;5050428;28;20092;-74
2022/09/13 01:07:26;;;;;;;;;;;;;;;13.89;73.36;97677.66;5045000;28;20286;-74
2022/09/13 01:10:17;;;;;;;;;;;;;;;13.89;73.41;97672.22;5031234;28;20577;-74
2022/09/13 01:13:11;;;;;;;;;;;;;;;13.89;73.54;97667.53;5027651;28;19937;-73
2022/09/13 01:16:01;;;;;;;;;;;;;;;13.89;73.38;97674.94;5045626;28;19931;-74
2022/09/13 01:18:50;;;;;;;;;;;;;;;13.88;73.38;97682.34;5046784;28;19951;-74
2022/09/13 01:21:58;;;;;;;;;;;;;;;13.87;73.27;97682.69;5032048;28;19975;-74
2022/09/13 01:24:57;;;;;;;;;;;;;;;13.89;73.52;97680.41;5028213;28;19936;-74
2022/09/13 01:28:11;;;;;;;;;;;;;;;13.87;73.21;97679.94;5040314;28;19929;-74
2022/09/13 01:31:07;;;;;;;;;;;;;;;13.86;72.99;97678.38;5043096;28;20332;-74
2022/09/13 01:33:59;;;;;;;;;;;;;;;13.84;73.01;97677.88;5031724;28;19932;-74
2022/09/13 01:37:06;;;;;;;;;;;;;;;13.84;73.24;97677.88;5030247;28;20464;-74
2022/09/13 01:39:58;;;;;;;;;;;;;;;13.79;73.31;97675.38;5037723;28;20283;-73
2022/09/13 01:42:50;;;;;;;;;;;;;;;13.77;73.38;97677.66;5034202;28;19935;-74
2022/09/13 01:45:39;;;;;;;;;;;;;;;13.78;73.36;97681.97;5032035;28;19983;-74
2022/09/13 01:48:34;;;;;;;;;;;;;;;13.79;73.40;97667.97;5022994;28;19932;-74
2022/09/13 01:51:27;;;;;;;;;;;;;;;13.79;73.39;97678.09;5045544;28;20003;-74
2022/09/13 01:54:17;;;;;;;;;;;;;;;13.72;73.37;97672.41;5028207;28;20018;-74
2022/09/13 01:57:07;;;;;;;;;;;;;;;13.71;73.58;97673.53;5045584;28;20028;-74
2022/09/13 01:59:59;;;;;;;;;;;;;;;13.68;73.67;97675.00;5044614;28;20559;-74
2022/09/13 02:02:49;;;;;;;;;;;;;;;13.68;73.65;97672.28;5027633;28;19990;-74
2022/09/13 02:05:40;;;;;;;;;;;;;;;13.68;73.53;97672.28;5044770;28;19935;-74
2022/09/13 02:08:31;;;;;;;;;;;;;;;13.67;73.48;97680.81;5040327;28;19925;-74
2022/09/13 02:11:21;;;;;;;;;;;;;;;13.61;73.67;97682.94;5044652;28;19940;-74
2022/09/13 02:14:11;;;;;;;;;;;;;;;13.59;73.47;97675.09;5045722;28;19931;-74
2022/09/13 02:17:01;;;;;;;;;;;;;;;13.55;73.48;97666.00;5028132;28;19929;-73
2022/09/13 02:19:51;;;;;;;;;;;;;;;13.55;73.58;97651.56;5042996;28;19999;-74
2022/09/13 02:22:43;;;;;;;;;;;;;;;13.54;73.70;97650.75;5030303;28;20135;-74
2022/09/13 02:25:33;;;;;;;;;;;;;;;13.53;73.37;97649.16;5019670;28;20445;-74
2022/09/13 02:28:26;;;;;;;;;;;;;;;13.50;73.42;97633.44;5035382;28;19935;-74
2022/09/13 02:31:15;;;;;;;;;;;;;;;13.49;73.43;97639.25;5036039;28;19933;-74
2022/09/13 02:34:04;;;;;;;;;;;;;;;13.43;73.45;97646.06;5036884;28;19932;-74
2022/09/13 02:37:17;;;;;;;;;;;;;;;13.38;73.62;97641.59;5033481;28;19932;-74
2022/09/13 02:40:08;;;;;;;;;;;;;;;13.39;73.90;97635.00;5036596;28;19954;-75
2022/09/13 02:42:57;;;;;;;;;;;;;;;13.39;73.88;97629.56;5046233;28;19932;-75
2022/09/13 02:45:47;;;;;;;;;;;;;;;13.38;73.78;97632.63;5049604;28;19932;-75
2022/09/13 02:48:37;;;;;;;;;;;;;;;13.37;73.82;97620.91;5036604;28;19936;-75
2022/09/13 02:51:25;;;;;;;;;;;;;;;13.36;73.57;97620.09;5051215;28;19934;-74
2022/09/13 02:54:16;;;;;;;;;;;;;;;13.28;74.03;97623.72;5050691;28;19925;-75
2022/09/13 02:57:06;;;;;;;;;;;;;;;13.29;73.76;97629.97;5051045;28;20454;-75
2022/09/13 02:59:54;;;;;;;;;;;;;;;13.28;73.90;97628.38;5050577;28;19928;-75
2022/09/13 03:02:43;;;;;;;;;;;;;;;13.23;73.95;97618.47;5036045;28;19932;-74
2022/09/13 03:05:31;;;;;;;;;;;;;;;13.15;74.05;97619.31;5030775;28;20015;-74
2022/09/13 03:08:20;;;;;;;;;;;;;;;13.14;74.32;97616.91;5035293;28;20409;-75
2022/09/13 03:11:10;;;;;;;;;;;;;;;13.17;74.29;97617.06;5048980;28;19940;-75
2022/09/13 03:14:05;;;;;;;;;;;;;;;13.18;74.17;97623.31;5036539;28;20403;-75
2022/09/13 03:16:57;;;;;;;;;;;;;;;13.17;74.23;97619.78;5025813;28;19935;-75
2022/09/13 03:19:53;;;;;;;;;;;;;;;13.16;74.24;97615.47;5035311;28;20493;-75
2022/09/13 03:23:07;;;;;;;;;;;;;;;13.15;74.25;97613.06;5032486;28;19933;-75
2022/09/13 03:26:00;;;;;;;;;;;;;;;13.10;74.00;97608.59;5046493;28;19994;-75
2022/09/13 03:29:21;;;;;;;;;;;;;;;13.00;74.25;97609.84;5034557;28;20534;-74
2022/09/13 03:32:18;;;;;;;;;;;;;;;13.02;74.33;97615.75;5019877;28;19929;-74
2022/09/13 03:35:08;;;;;;;;;;;;;;;13.06;74.33;97618.59;5028073;28;19951;-75
2022/09/13 03:37:59;;;;;;;;;;;;;;;13.09;74.26;97610.53;5025199;28;19932;-75
2022/09/13 03:40:49;;;;;;;;;;;;;;;13.08;74.29;97602.69;5045423;28;19924;-74
2022/09/13 03:44:03;;;;;;;;;;;;;;;13.07;74.65;97604.63;5047229;28;20328;-75
2022/09/13 03:46:55;;;;;;;;;;;;;;;13.05;74.43;97598.72;5033267;28;19925;-74
2022/09/13 03:49:44;;;;;;;;;;;;;;;13.01;74.60;97595.06;5028844;28;19929;-74
2022/09/13 03:52:32;;;;;;;;;;;;;;;12.98;74.48;97597.66;5032571;28;19933;-74
2022/09/13 03:55:21;;;;;;;;;;;;;;;12.99;74.69;97602.75;5029829;28;20411;-74
2022/09/13 03:58:11;;;;;;;;;;;;;;;12.97;74.68;97607.75;5038581;28;19925;-74
2022/09/13 04:00:59;;;;;;;;;;;;;;;12.97;74.96;97623.31;5032755;28;20265;-75
2022/09/13 04:03:49;;;;;;;;;;;;;;;12.95;74.64;97623.66;5027510;28;19929;-75
2022/09/13 04:06:41;;;;;;;;;;;;;;;12.95;74.79;97601.84;5029918;28;20302;-75
2022/09/13 04:09:29;;;;;;;;;;;;;;;13.00;74.84;97590.75;5044805;28;20627;-75
2022/09/13 04:12:18;;;;;;;;;;;;;;;13.03;74.60;97597.44;5043151;28;19925;-75
2022/09/13 04:15:07;;;;;;;;;;;;;;;12.99;74.87;97600.03;5041121;28;20426;-75
2022/09/13 04:17:55;;;;;;;;;;;;;;;12.99;74.94;97600.03;5037281;28;20379;-75
2022/09/13 04:20:52;;;;;;;;;;;;;;;12.95;74.80;97599.13;5030275;28;19924;-75
2022/09/13 04:24:05;;;;;;;;;;;;;;;12.98;75.07;97598.44;5041456;28;20016;-75
2022/09/13 04:26:53;;;;;;;;;;;;;;;12.99;75.16;97594.56;5038536;28;20460;-74
2022/09/13 04:30:08;;;;;;;;;;;;;;;12.98;75.12;97603.91;5046776;28;19932;-75
2022/09/13 04:32:58;;;;;;;;;;;;;;;12.99;74.86;97616.41;5029308;28;19928;-75
2022/09/13 04:35:48;;;;;;;;;;;;;;;12.94;75.31;97627.50;5041595;28;19932;-74
2022/09/13 04:38:36;;;;;;;;;;;;;;;12.94;74.87;97619.31;5042330;28;19933;-75
2022/09/13 04:41:27;;;;;;;;;;;;;;;12.95;75.11;97601.84;5031640;28;19928;-75
2022/09/13 04:44:19;;;;;;;;;;;;;;;12.96;74.79;97600.72;5013854;28;19926;-75
2022/09/13 04:47:07;;;;;;;;;;;;;;;12.95;75.00;97615.50;5040253;28;19925;-75
2022/09/13 04:49:56;;;;;;;;;;;;;;;12.93;75.02;97617.72;5041126;28;19929;-75
2022/09/13 04:52:46;;;;;;;;;;;;;;;12.89;75.11;97619.56;5040150;28;19974;-75
2022/09/13 04:55:35;;;;;;;;;;;;;;;12.88;75.29;97620.66;5030456;28;20374;-75
2022/09/13 04:58:30;;;;;;;;;;;;;;;12.92;75.40;97632.50;5027971;28;20948;-76
2022/09/13 05:01:20;;;;;;;;;;;;;;;12.92;75.16;97639.88;5020695;28;19925;-75
2022/09/13 05:04:12;;;;;;;;;;;;;;;12.91;75.05;97636.38;5039171;28;19932;-75
2022/09/13 05:07:00;;;;;;;;;;;;;;;12.91;75.12;97636.38;5029549;28;19936;-75
2022/09/13 05:09:52;;;;;;;;;;;;;;;12.94;74.94;97623.97;5025070;28;19928;-74
2022/09/13 05:12:40;;;;;;;;;;;;;;;12.98;74.85;97625.72;5023939;28;19928;-75
2022/09/13 05:15:28;;;;;;;;;;;;;;;13.03;74.64;97617.31;5028746;28;19933;-76
2022/09/13 05:18:16;;;;;;;;;;;;;;;13.06;74.66;97626.78;5045268;28;19959;-75
2022/09/13 05:21:05;;;;;;;;;;;;;;;13.08;74.68;97628.03;5037570;28;19997;-75
2022/09/13 05:23:54;;;;;;;;;;;;;;;13.08;74.47;97616.34;5036680;28;19929;-74
2022/09/13 05:26:46;;;;;;;;;;;;;;;13.11;74.33;97619.19;5024953;28;19986;-77
2022/09/13 05:29:35;;;;;;;;;;;;;;;13.05;74.43;97619.75;5029186;28;19925;-74
2022/09/13 05:32:25;;;;;;;;;;;;;;;13.05;74.36;97608.84;5035767;28;19925;-74
2022/09/13 05:35:14;;;;;;;;;;;;;;;13.10;74.29;97608.59;5020266;28;19928;-74
2022/09/13 05:38:03;;;;;;;;;;;;;;;13.13;74.42;97613.41;5023417;28;19940;-74
2022/09/13 05:44:09;;;;;;;;;;;;;;;13.24;73.78;97600.97;5043542;28;20037;-86
2022/09/13 05:47:00;;;;;;;;;;;;;;;13.27;74.07;97599.50;5036377;28;19995;-76
2022/09/13 05:49:48;;;;;;;;;;;;;;;13.34;73.71;97599.75;5044406;28;20343;-75
2022/09/13 05:53:22;;;;;;;;;;;;;;;13.41;73.99;97604.66;5022311;28;19935;-76
2022/09/13 05:56:11;;;;;;;;;;;;;;;13.52;73.76;97601.16;5044234;28;19932;-76
2022/09/13 05:59:03;;;;;;;;;;;;;;;13.57;73.81;97603.66;5044080;28;20434;-77
2022/09/13 06:01:53;;;;;;;;;;;;;;;13.60;73.93;97602.22;5030048;28;20026;-76
2022/09/13 06:04:44;;;;;;;;;;;;;;;13.66;73.42;97610.97;5034671;28;20042;-76
2022/09/13 06:07:34;;;;;;;;;;;;;;;13.70;73.36;97611.91;5044371;28;20583;-76
2022/09/13 06:10:22;;;;;;;;;;;;;;;13.72;73.79;97609.63;5037822;28;20290;-75
2022/09/13 06:13:10;;;;;;;;;;;;;;;13.79;73.77;97627.00;5043806;28;20027;-76
2022/09/13 06:19:12;;;;;;;;;;;;;;;13.95;73.60;97629.88;5044394;28;19976;-76
2022/09/13 06:22:03;;;;;;;;;;;;;;;13.94;73.15;97622.84;5035585;28;20508;-75
2022/09/13 06:24:51;;;;;;;;;;;;;;;13.96;73.40;97636.97;5028955;28;19936;-76
2022/09/13 06:27:40;;;;;;;;;;;;;;;13.98;73.10;97629.22;5030576;28;19944;-76
2022/09/13 06:30:28;;;;;;;;;;;;;;;14.02;73.09;97632.88;5045081;28;19982;-76
2022/09/13 06:33:17;;;;;;;;;;;;;;;14.05;73.07;97634.91;5039602;28;19928;-76
2022/09/13 06:36:07;;;;;;;;;;;;;;;14.12;72.99;97642.56;5045488;28;19928;-75
2022/09/13 06:38:55;;;;;;;;;;;;;;;14.19;73.09;97629.13;5030195;28;19928;-76
2022/09/13 06:41:44;;;;;;;;;;;;;;;14.28;72.98;97637.22;5029112;28;19929;-76
2022/09/13 06:44:32;;;;;;;;;;;;;;;14.34;72.56;97633.09;5025145;28;19933;-76
2022/09/13 06:47:20;;;;;;;;;;;;;;;14.38;72.65;97626.63;5044383;28;19932;-76
2022/09/13 06:50:11;;;;;;;;;;;;;;;14.47;72.86;97634.69;5025554;28;19935;-76
2022/09/13 06:53:07;;;;;;;;;;;;;;;14.58;72.37;97624.09;5041416;28;19924;-76
2022/09/13 06:56:02;;;;;;;;;;;;;;;14.63;72.15;97630.13;5029799;28;19925;-76
2022/09/13 06:58:51;;;;;;;;;;;;;;;14.75;71.83;97625.78;5043374;28;19925;-76
2022/09/13 07:01:42;;;;;;;;;;;;;;;14.81;71.57;97617.00;5020268;28;20014;-76
2022/09/13 07:04:30;;;;;;;;;;;;;;;14.88;71.55;97619.16;5044860;28;19995;-76
2022/09/13 07:07:19;;;;;;;;;;;;;;;14.95;71.64;97627.53;5043530;28;20331;-76
2022/09/13 07:10:09;;;;;;;;;;;;;;;14.99;71.51;97631.19;5044575;28;19928;-76
2022/09/13 07:12:58;;;;;;;;;;;;;;;15.01;71.60;97626.16;5045313;28;19929;-75
2022/09/13 07:15:46;;;;;;;;;;;;;;;15.09;71.01;97619.75;5033507;28;19925;-75
2022/09/13 07:18:34;;;;;;;;;;;;;;;15.14;71.20;97616.78;5041072;28;19932;-76
2022/09/13 07:21:23;;;;;;;;;;;;;;;15.26;71.07;97620.59;5046355;28;19968;-75
2022/09/13 07:24:12;;;;;;;;;;;;;;;15.33;70.67;97632.53;5041263;28;19924;-76
2022/09/13 07:27:02;;;;;;;;;;;;;;;15.41;70.89;97619.84;5043811;28;19932;-75
2022/09/13 07:29:52;;;;;;;;;;;;;;;15.51;70.82;97629.50;5042213;28;19936;-76
2022/09/13 07:32:41;;;;;;;;;;;;;;;15.56;70.64;97627.31;5032935;28;20478;-76
2022/09/13 07:35:29;;;;;;;;;;;;;;;15.59;70.45;97629.31;5038924;28;19925;-75
2022/09/13 07:38:23;;;;;;;;;;;;;;;15.68;70.22;97635.47;5047235;28;20023;-75
2022/09/13 07:41:14;;;;;;;;;;;;;;;15.77;70.36;97635.31;5047568;28;19929;-75
2022/09/13 07:44:05;;;;;;;;;;;;;;;15.85;70.17;97637.06;5032992;28;19959;-75
2022/09/13 07:46:53;;;;;;;;;;;;;;;15.93;70.20;97629.84;5042588;28;19925;-75
2022/09/13 07:49:42;;;;;;;;;;;;;;;16.02;69.56;97632.41;5041444;28;19936;-75
2022/09/13 07:52:30;;;;;;;;;;;;;;;16.08;68.55;97637.25;5046630;28;20007;-75
2022/09/13 07:55:19;;;;;;;;;;;;;;;16.13;68.94;97637.00;5033398;28;19952;-75
2022/09/13 07:58:07;;;;;;;;;;;;;;;16.22;68.35;97640.34;5046695;28;19932;-75
2022/09/13 08:00:57;;;;;;;;;;;;;;;16.31;68.91;97642.13;5045882;28;20098;-75
2022/09/13 08:03:48;;;;;;;;;;;;;;;16.37;68.10;97638.75;5028198;28;19924;-75
2022/09/13 08:06:37;;;;;;;;;;;;;;;16.44;67.90;97632.63;5035493;28;19928;-75
2022/09/13 08:09:25;;;;;;;;;;;;;;;16.52;67.94;97631.66;5030222;28;19933;-75
2022/09/13 08:12:15;;;;;;;;;;;;;;;16.54;67.42;97634.81;5042097;28;19924;-75
2022/09/13 08:15:04;;;;;;;;;;;;;;;16.60;67.03;97638.88;5040167;28;19947;-75
2022/09/13 08:17:54;;;;;;;;;;;;;;;16.66;67.44;97644.88;5047124;28;19936;-76
2022/09/13 08:20:43;;;;;;;;;;;;;;;16.66;66.55;97640.19;5046528;28;19932;-76
2022/09/13 08:23:32;;;;;;;;;;;;;;;16.67;66.83;97644.53;5040364;28;20523;-75
2022/09/13 08:26:24;;;;;;;;;;;;;;;16.72;67.03;97651.72;5041752;28;20379;-74
2022/09/13 08:32:50;;;;;;;;;;;;;;;16.82;66.00;97645.66;5037857;28;19929;-75
2022/09/13 08:35:40;;;;;;;;;;;;;;;16.81;65.53;97648.78;5039134;28;19929;-75
2022/09/13 08:38:28;;;;;;;;;;;;;;;16.87;66.24;97647.34;5031520;28;19948;-75
2022/09/13 08:41:27;;;;;;;;;;;;;;;16.99;66.67;97649.94;5046097;28;19924;-75
2022/09/13 08:44:16;;;;;;;;;;;;;;;17.10;65.47;97653.72;5030837;28;19925;-75
2022/09/13 08:47:21;;;;;;;;;;;;;;;17.18;64.54;97658.19;5044195;28;20379;-75
2022/09/13 08:50:13;;;;;;;;;;;;;;;17.33;64.18;97653.00;5032383;28;20260;-75
2022/09/13 08:53:08;;;;;;;;;;;;;;;17.47;64.43;97647.78;5027003;28;19935;-75
2022/09/13 08:55:58;;;;;;;;;;;;;;;17.64;64.77;97649.31;5024034;28;19979;-75
2022/09/13 08:58:49;;;;;;;;;;;;;;;17.79;63.27;97640.19;5045172;28;19929;-75
2022/09/13 09:01:42;;;;;;;;;;;;;;;17.83;63.37;97626.50;5038052;28;19933;-75
2022/09/13 09:04:34;;;;;;;;;;;;;;;17.75;62.65;97626.38;5043730;28;19925;-75
2022/09/13 09:07:23;;;;;;;;;;;;;;;17.72;63.39;97632.59;5046114;28;19956;-75
2022/09/13 09:10:15;;;;;;;;;;;;;;;17.69;63.97;97638.81;5025904;28;19925;-75
2022/09/13 09:13:04;;;;;;;;;;;;;;;17.67;63.74;97638.38;5041950;28;19951;-75
2022/09/13 09:15:53;;;;;;;;;;;;;;;17.69;64.05;97630.56;5045764;28;20656;-75
2022/09/13 09:18:43;;;;;;;;;;;;;;;17.72;63.38;97640.84;5045887;28;20039;-75
2022/09/13 09:21:32;;;;;;;;;;;;;;;17.79;63.59;97642.94;5045641;28;19925;-74
2022/09/13 09:24:21;;;;;;;;;;;;;;;17.84;63.53;97639.88;5030437;28;19932;-75
2022/09/13 09:30:26;;;;;;;;;;;;;;;17.95;61.68;97648.31;5033917;28;19925;-75
2022/09/13 09:33:19;;;;;;;;;;;;;;;17.95;61.29;97648.31;5045506;28;19937;-75
2022/09/13 09:36:09;;;;;;;;;;;;;;;17.93;61.94;97653.38;5029926;28;19928;-75
2022/09/13 09:38:57;;;;;;;;;;;;;;;17.91;61.90;97641.97;5046906;28;19986;-75
2022/09/13 09:41:46;;;;;;;;;;;;;;;17.92;62.73;97643.56;5031509;28;20036;-75
2022/09/13 09:44:36;;;;;;;;;;;;;;;17.92;62.79;97646.31;5044594;28;19933;-75
2022/09/13 09:47:25;;;;;;;;;;;;;;;17.93;63.24;97648.69;5026623;28;19936;-75
2022/09/13 09:50:17;;;;;;;;;;;;;;;17.96;61.36;97638.91;5044589;28;20015;-75
2022/09/13 09:53:08;;;;;;;;;;;;;;;17.98;61.96;97645.63;5045500;28;19925;-75
2022/09/13 09:56:00;;;;;;;;;;;;;;;17.99;61.53;97638.16;5029787;28;20063;-75
2022/09/13 09:58:51;;;;;;;;;;;;;;;18.01;60.94;97641.38;5039470;28;20539;-76
2022/09/13 10:01:42;;;;;;;;;;;;;;;18.05;61.81;97634.75;5045731;28;19925;-75
2022/09/13 10:04:30;;;;;;;;;;;;;;;18.14;62.19;97626.25;5043709;28;20027;-75
2022/09/13 10:07:23;;;;;;;;;;;;;;;18.20;62.95;97613.78;5043959;28;20350;-76
2022/09/13 10:10:20;;;;;;;;;;;;;;;18.23;62.70;97606.78;5044647;28;20293;-76
2022/09/13 10:13:12;;;;;;;;;;;;;;;18.22;62.84;97592.22;5020025;28;19940;-76
2022/09/13 10:16:01;;;;;;;;;;;;;;;18.23;61.96;97599.31;5044775;28;19936;-76
2022/09/13 10:18:51;;;;;;;;;;;;;;;18.29;62.10;97589.56;5044807;28;20649;-76
2022/09/13 10:21:39;;;;;;;;;;;;;;;18.38;62.12;97591.28;5044810;28;19932;-76
2022/09/13 10:24:29;;;;;;;;;;;;;;;18.46;62.75;97581.97;5039555;28;19936;-75
2022/09/13 10:27:20;;;;;;;;;;;;;;;18.52;62.99;97563.97;5031599;28;20244;-76
2022/09/13 10:33:31;;;;;;;;;;;;;;;18.69;61.47;97560.69;5041367;28;20000;-76
2022/09/13 10:36:22;;;;;;;;;;;;;;;18.69;62.61;97566.19;5046172;28;20074;-75
2022/09/13 10:39:31;;;;;;;;;;;;;;;18.79;62.17;97579.31;5038970;28;19937;-76
2022/09/13 10:42:20;;;;;;;;;;;;;;;18.81;61.29;97584.44;5043657;28;19932;-76
2022/09/13 10:45:09;;;;;;;;;;;;;;;18.84;61.52;97576.22;5045153;28;19980;-75
2022/09/13 10:47:58;;;;;;;;;;;;;;;18.93;60.69;97583.41;5033322;28;19929;-76
2022/09/13 10:51:06;;;;;;;;;;;;;;;18.99;61.06;97593.72;5042673;28;19925;-77
2022/09/13 10:54:06;;;;;;;;;;;;;;;19.00;60.45;97573.28;5044653;28;19936;-76
2022/09/13 10:56:55;;;;;;;;;;;;;;;19.10;60.13;97577.31;5041513;28;19936;-76
2022/09/13 10:59:45;;;;;;;;;;;;;;;19.15;59.36;97570.69;5034568;28;19925;-76
2022/09/13 11:02:43;;;;;;;;;;;;;;;19.16;59.35;97570.31;5033504;28;19936;-76
2022/09/13 11:05:36;;;;;;;;;;;;;;;19.20;59.43;97575.88;5048020;28;19925;-76
2022/09/13 11:08:27;;;;;;;;;;;;;;;19.22;59.32;97582.56;5049412;28;19928;-76
2022/09/13 11:11:20;;;;;;;;;;;;;;;19.30;59.06;97575.19;5033665;28;20494;-76
2022/09/13 11:14:16;;;;;;;;;;;;;;;19.40;58.17;97591.06;5047322;28;19933;-76
2022/09/13 11:17:06;;;;;;;;;;;;;;;19.42;57.77;97590.66;5034931;28;19956;-76
2022/09/13 11:20:00;;;;;;;;;;;;;;;19.48;58.24;97572.63;5041257;28;19947;-76
2022/09/13 11:23:02;;;;;;;;;;;;;;;19.62;56.93;97576.34;5032540;28;19925;-75
2022/09/13 11:25:53;;;;;;;;;;;;;;;19.57;57.83;97581.38;5028722;28;19964;-76
2022/09/13 11:28:47;;;;;;;;;;;;;;;19.52;56.80;97566.00;5046908;28;19971;-75
2022/09/13 11:31:38;;;;;;;;;;;;;;;19.55;57.44;97556.97;5042492;28;19929;-76
2022/09/13 11:34:35;;;;;;;;;;;;;;;19.59;57.91;97562.53;5030111;28;20015;-76
2022/09/13 11:37:33;;;;;;;;;;;;;;;19.63;56.88;97546.84;5048262;28;19925;-76
2022/09/13 11:40:28;;;;;;;;;;;;;;;19.71;57.91;97556.75;5044869;28;20418;-76
2022/09/13 11:43:27;;;;;;;;;;;;;;;19.77;57.91;97576.50;5048177;28;20362;-76
2022/09/13 11:46:18;;;;;;;;;;;;;;;19.79;57.40;97577.69;5027758;28;19975;-75
2022/09/13 11:49:12;;;;;;;;;;;;;;;19.81;57.75;97578.09;5032765;28;20459;-75
2022/09/13 11:52:03;;;;;;;;;;;;;;;19.79;57.09;97568.63;5043571;28;20404;-76
2022/09/13 11:54:55;;;;;;;;;;;;;;;19.75;57.39;97579.63;5032673;28;19979;-76
2022/09/13 11:57:44;;;;;;;;;;;;;;;19.66;57.55;97583.88;5045721;28;19936;-76
2022/09/13 12:00:33;;;;;;;;;;;;;;;19.56;57.68;97580.59;5046291;28;19939;-76
2022/09/13 12:03:24;;;;;;;;;;;;;;;19.52;57.87;97570.72;5038979;28;19973;-85
2022/09/13 12:06:14;;;;;;;;;;;;;;;19.47;59.37;97573.81;5030565;28;20387;-75
2022/09/13 12:12:17;;;;;;;;;;;;;;;19.48;58.94;97575.38;5047418;28;20474;-75
2022/09/13 12:15:07;;;;;;;;;;;;;;;19.51;58.05;97580.16;5040179;28;19925;-76
2022/09/13 12:17:59;;;;;;;;;;;;;;;19.49;58.17;97577.75;5046323;28;20433;-75
2022/09/13 12:20:54;;;;;;;;;;;;;;;19.50;58.07;97587.63;5042312;28;19931;-76
2022/09/13 12:23:43;;;;;;;;;;;;;;;19.48;58.04;97587.19;5044066;28;19932;-75
2022/09/13 12:26:34;;;;;;;;;;;;;;;19.45;59.14;97581.66;5032254;28;19954;-76
2022/09/13 12:29:25;;;;;;;;;;;;;;;19.41;60.39;97569.81;5044809;28;19925;-76
2022/09/13 12:32:14;;;;;;;;;;;;;;;19.40;60.83;97566.25;5043103;28;19925;-76
2022/09/13 12:35:03;;;;;;;;;;;;;;;19.37;61.17;97561.50;5045467;28;19928;-76
2022/09/13 12:38:02;;;;;;;;;;;;;;;19.34;61.98;97557.56;5030483;28;20597;-76
2022/09/13 12:41:06;;;;;;;;;;;;;;;19.32;62.03;97553.56;5045477;28;19933;-75
2022/09/13 12:44:15;;;;;;;;;;;;;;;19.30;62.61;97548.44;5038272;28;19947;-76
2022/09/13 12:47:30;;;;;;;;;;;;;;;19.29;63.60;97544.13;5033460;28;19933;-76
2022/09/13 12:50:21;;;;;;;;;;;;;;;19.28;63.65;97539.78;5037053;28;19931;-76
2022/09/13 12:53:59;;;;;;;;;;;;;;;19.30;63.82;97534.69;5044573;28;20007;-75
2022/09/13 12:57:02;;;;;;;;;;;;;;;19.32;63.74;97542.56;5017889;28;19925;-75
2022/09/13 13:00:08;;;;;;;;;;;;;;;19.30;63.49;97542.94;5029381;28;20030;-76
2022/09/13 13:03:10;;;;;;;;;;;;;;;19.32;63.47;97529.56;5034275;28;19925;-76
2022/09/13 13:06:27;;;;;;;;;;;;;;;19.34;62.52;97543.78;5045821;28;20023;-75
2022/09/13 13:09:21;;;;;;;;;;;;;;;19.36;62.17;97540.63;5026290;28;19929;-75
2022/09/13 13:12:25;;;;;;;;;;;;;;;19.36;62.57;97532.38;5030112;28;19953;-75
2022/09/13 13:15:28;;;;;;;;;;;;;;;19.38;62.65;97532.78;5044294;28;19962;-73
2022/09/13 13:18:22;;;;;;;;;;;;;;;19.37;62.66;97537.50;5030595;28;20314;-75
2022/09/13 13:21:33;;;;;;;;;;;;;;;19.38;63.22;97530.81;5046477;28;19924;-74
2022/09/13 13:24:37;;;;;;;;;;;;;;;19.42;62.86;97524.56;5029009;28;19924;-74
2022/09/13 13:27:40;;;;;;;;;;;;;;;19.42;62.48;97522.59;5030784;28;19929;-74
2022/09/13 13:30:53;;;;;;;;;;;;;;;19.51;63.30;97525.03;5041438;28;19925;-74
2022/09/13 13:33:47;;;;;;;;;;;;;;;19.59;62.50;97526.72;5044274;28;20318;-74
2022/09/13 13:36:43;;;;;;;;;;;;;;;19.65;62.24;97527.16;5040853;28;19963;-74
2022/09/13 13:39:38;;;;;;;;;;;;;;;19.69;62.20;97522.47;5031165;28;19933;-74
2022/09/13 13:42:27;;;;;;;;;;;;;;;19.73;62.71;97521.34;5029996;28;19925;-75
2022/09/13 13:45:20;;;;;;;;;;;;;;;19.77;61.90;97516.66;5041585;28;19952;-75
2022/09/13 13:48:13;;;;;;;;;;;;;;;19.84;61.41;97522.22;5029713;28;20421;-74
2022/09/13 13:51:26;;;;;;;;;;;;;;;19.92;62.11;97511.22;5023892;28;20525;-75
2022/09/13 13:54:29;;;;;;;;;;;;;;;19.95;62.38;97521.50;5044511;28;20029;-75
2022/09/13 13:57:22;;;;;;;;;;;;;;;19.96;62.10;97517.56;5043961;28;19936;-75
2022/09/13 14:00:14;;;;;;;;;;;;;;;19.94;62.89;97514.41;5045327;28;19932;-74
2022/09/13 14:03:09;;;;;;;;;;;;;;;19.90;63.08;97514.38;5043336;28;19933;-74
2022/09/13 14:06:25;;;;;;;;;;;;;;;19.91;63.57;97506.91;5040584;28;19928;-74
2022/09/13 14:09:19;;;;;;;;;;;;;;;19.91;63.06;97493.09;5045692;28;19929;-74
2022/09/13 14:12:17;;;;;;;;;;;;;;;19.95;63.43;97505.75;5035759;28;20071;-74
2022/09/13 14:15:19;;;;;;;;;;;;;;;20.00;63.20;97491.59;5029770;28;19924;-74
2022/09/13 14:18:20;;;;;;;;;;;;;;;20.02;62.92;97486.50;5043346;28;20445;-74
2022/09/13 14:21:33;;;;;;;;;;;;;;;20.06;63.02;97484.56;5043078;28;19935;-74
2022/09/13 14:24:24;;;;;;;;;;;;;;;20.14;61.88;97480.69;5043009;28;19929;-74
2022/09/13 14:27:15;;;;;;;;;;;;;;;20.26;62.89;97490.59;5024860;28;19955;-74
2022/09/13 14:30:05;;;;;;;;;;;;;;;20.24;62.30;97492.13;5026013;28;19924;-75
2022/09/13 14:32:55;;;;;;;;;;;;;;;20.28;61.25;97479.97;5018060;28;19929;-74
2022/09/13 14:35:43;;;;;;;;;;;;;;;20.31;60.93;97468.16;5042920;28;19929;-75
2022/09/13 14:38:34;;;;;;;;;;;;;;;20.31;61.36;97473.69;5024514;28;19939;-74
2022/09/13 14:41:29;;;;;;;;;;;;;;;20.30;61.80;97469.34;5027661;28;19929;-74
2022/09/13 14:44:18;;;;;;;;;;;;;;;20.39;61.56;97477.25;5042066;28;19929;-75
2022/09/13 14:47:12;;;;;;;;;;;;;;;20.34;60.99;97475.66;5042420;28;19929;-75
2022/09/13 14:50:02;;;;;;;;;;;;;;;20.26;61.39;97467.75;5041776;28;20397;-75
2022/09/13 14:52:51;;;;;;;;;;;;;;;20.22;62.42;97464.16;5023167;28;19952;-73
2022/09/13 14:55:40;;;;;;;;;;;;;;;20.22;61.96;97475.19;5020078;28;19940;-74
2022/09/13 14:58:54;;;;;;;;;;;;;;;20.21;61.76;97460.63;5028309;28;19993;-75
2022/09/13 15:01:44;;;;;;;;;;;;;;;20.26;61.66;97462.22;5037668;28;19939;-75
2022/09/13 15:04:33;;;;;;;;;;;;;;;20.28;61.38;97454.34;5042352;28;19933;-74
2022/09/13 15:07:22;;;;;;;;;;;;;;;20.28;61.69;97455.13;5043573;28;20501;-75
2022/09/13 15:10:21;;;;;;;;;;;;;;;20.29;61.45;97459.47;5021539;28;19939;-76
2022/09/13 15:13:09;;;;;;;;;;;;;;;20.31;61.00;97456.34;5038213;28;19951;-75
2022/09/13 15:15:57;;;;;;;;;;;;;;;20.35;61.24;97454.41;5039574;28;19929;-75
2022/09/13 15:18:47;;;;;;;;;;;;;;;20.32;61.27;97450.44;5051432;28;19959;-75
2022/09/13 15:21:36;;;;;;;;;;;;;;;20.29;61.76;97442.91;5042435;28;20589;-76
2022/09/13 15:24:26;;;;;;;;;;;;;;;20.26;61.98;97446.47;5026105;28;19924;-76